Time;durP1;ratioP1;P1;durP2;ratioP2;P2;SDS_P1;SDS_P2;PMS_P1;PMS_P2;Temp;Humidity;BMP_temperature;BMP_pressure;BME280_temperature;BME280_humidity;BME280_pressure;Samples;Min_cycle;Max_cycle;Signal;HPM_P1;HPM_P2
2023/12/17 00:00:31;;;;;;;;;;;9.80;99.90;;;;;;5074886;28;19932;-76
2023/12/17 00:02:57;;;;;;;;;;;9.70;99.90;;;;;;5074760;28;20379;-82
2023/12/17 00:05:24;;;;;;;;;;;9.70;99.90;;;;;;5077455;28;19977;-81
2023/12/17 00:07:52;;;;;;;;;;;9.70;99.90;;;;;;5076612;28;19924;-78
2023/12/17 00:10:21;;;;;;;;;;;9.70;99.90;;;;;;5075834;28;19952;-80
2023/12/17 00:12:47;;;;;;;;;;;9.70;99.90;;;;;;5074268;28;19924;-79
2023/12/17 00:15:14;;;;;;;;;;;9.70;99.90;;;;;;5070469;28;19925;-79
2023/12/17 00:17:41;;;;;;;;;;;9.70;99.90;;;;;;5073185;28;20433;-80
2023/12/17 00:20:08;;;;;;;;;;;9.70;99.90;;;;;;5075248;28;20397;-80
2023/12/17 00:22:36;;;;;;;;;;;9.70;99.90;;;;;;5072068;28;19963;-79
2023/12/17 00:25:05;;;;;;;;;;;9.70;99.90;;;;;;5071881;28;19924;-80
2023/12/17 00:27:32;;;;;;;;;;;9.70;99.90;;;;;;5068582;28;19924;-80
2023/12/17 00:29:58;;;;;;;;;;;9.60;99.90;;;;;;5064278;28;19931;-80
2023/12/17 00:32:25;;;;;;;;;;;9.60;99.90;;;;;;5067958;28;19924;-79
2023/12/17 00:34:52;;;;;;;;;;;9.60;99.90;;;;;;5069791;28;19929;-80
2023/12/17 00:37:19;;;;;;;;;;;9.60;99.90;;;;;;5075186;28;19925;-79
2023/12/17 00:39:45;;;;;;;;;;;9.60;99.90;;;;;;5072911;28;20298;-80
2023/12/17 00:42:14;;;;;;;;;;;9.70;99.90;;;;;;5072953;28;19929;-80
2023/12/17 00:44:40;;;;;;;;;;;9.60;99.90;;;;;;5073172;28;19928;-79
2023/12/17 00:47:07;;;;;;;;;;;9.70;99.90;;;;;;5072238;28;19931;-81
2023/12/17 00:49:34;;;;;;;;;;;9.60;99.90;;;;;;5074739;28;19931;-81
2023/12/17 00:52:00;;;;;;;;;;;9.60;99.90;;;;;;5072824;28;19925;-81
2023/12/17 00:54:27;;;;;;;;;;;9.70;99.90;;;;;;5074325;28;19970;-82
2023/12/17 00:56:54;;;;;;;;;;;9.70;99.90;;;;;;5070464;28;20440;-77
2023/12/17 00:59:22;;;;;;;;;;;9.60;99.90;;;;;;5070416;28;20342;-76
2023/12/17 01:01:49;;;;;;;;;;;9.70;99.90;;;;;;5068341;28;19986;-75
2023/12/17 01:04:16;;;;;;;;;;;9.70;99.90;;;;;;5074274;28;20458;-76
2023/12/17 01:06:42;;;;;;;;;;;9.60;99.90;;;;;;5072911;28;19978;-77
2023/12/17 01:09:10;;;;;;;;;;;9.70;99.90;;;;;;5069970;28;19932;-77
2023/12/17 01:11:37;;;;;;;;;;;9.70;99.90;;;;;;5067660;28;19924;-77
2023/12/17 01:14:03;;;;;;;;;;;9.70;99.90;;;;;;5072030;28;19925;-78
2023/12/17 01:16:32;;;;;;;;;;;9.60;99.90;;;;;;5066532;28;19978;-77
2023/12/17 01:18:58;;;;;;;;;;;9.60;99.90;;;;;;5065134;28;20399;-78
2023/12/17 01:21:25;;;;;;;;;;;9.60;99.90;;;;;;5071961;28;19924;-77
2023/12/17 01:23:52;;;;;;;;;;;9.70;99.90;;;;;;5070379;28;19925;-78
2023/12/17 01:26:20;;;;;;;;;;;9.60;99.90;;;;;;5067585;28;19924;-77
2023/12/17 01:28:47;;;;;;;;;;;9.70;99.90;;;;;;5070182;28;19934;-77
2023/12/17 01:31:14;;;;;;;;;;;9.60;99.90;;;;;;5067113;28;19983;-78
2023/12/17 01:33:42;;;;;;;;;;;9.60;99.90;;;;;;5070927;28;19985;-77
2023/12/17 01:36:09;;;;;;;;;;;9.60;99.90;;;;;;5065195;28;19960;-78
2023/12/17 01:38:36;;;;;;;;;;;9.60;99.90;;;;;;5068098;28;19925;-80
2023/12/17 01:41:03;;;;;;;;;;;9.60;99.90;;;;;;5072606;28;19924;-81
2023/12/17 01:43:30;;;;;;;;;;;9.60;99.90;;;;;;5069703;28;20298;-80
2023/12/17 01:45:57;;;;;;;;;;;9.60;99.90;;;;;;5060568;28;20013;-81
2023/12/17 01:48:24;;;;;;;;;;;9.60;99.90;;;;;;5063392;28;20026;-80
2023/12/17 01:50:52;;;;;;;;;;;9.50;99.90;;;;;;5066480;28;19932;-80
2023/12/17 01:53:19;;;;;;;;;;;9.50;99.90;;;;;;5068229;28;19953;-78
2023/12/17 01:55:47;;;;;;;;;;;9.50;99.90;;;;;;5070713;28;19928;-77
2023/12/17 01:58:15;;;;;;;;;;;9.50;99.90;;;;;;5064346;28;19931;-79
2023/12/17 02:00:42;;;;;;;;;;;9.50;99.90;;;;;;5070845;28;19924;-80
2023/12/17 02:03:09;;;;;;;;;;;9.50;99.90;;;;;;5068492;28;20015;-79
2023/12/17 02:05:36;;;;;;;;;;;9.50;99.90;;;;;;5065258;28;19932;-78
2023/12/17 02:08:05;;;;;;;;;;;9.50;99.90;;;;;;5064318;28;19931;-76
2023/12/17 02:10:31;;;;;;;;;;;9.40;99.90;;;;;;5062876;28;19924;-76
2023/12/17 02:12:59;;;;;;;;;;;9.40;99.90;;;;;;5067071;28;19928;-78
2023/12/17 02:15:25;;;;;;;;;;;9.40;99.90;;;;;;5067531;28;19948;-77
2023/12/17 02:17:52;;;;;;;;;;;9.40;99.90;;;;;;5069468;28;19925;-77
2023/12/17 02:20:19;;;;;;;;;;;9.40;99.90;;;;;;5072655;28;19978;-77
2023/12/17 02:22:51;;;;;;;;;;;9.40;99.90;;;;;;5066299;28;19951;-75
2023/12/17 02:25:19;;;;;;;;;;;9.40;99.90;;;;;;5069168;28;19929;-77
2023/12/17 02:27:46;;;;;;;;;;;9.30;99.90;;;;;;5072286;28;19931;-75
2023/12/17 02:30:13;;;;;;;;;;;9.30;99.90;;;;;;5059687;28;19931;-76
2023/12/17 02:32:40;;;;;;;;;;;9.30;99.90;;;;;;5061396;28;19990;-75
2023/12/17 02:35:07;;;;;;;;;;;9.30;99.90;;;;;;5067111;28;20334;-75
2023/12/17 02:37:34;;;;;;;;;;;9.30;99.90;;;;;;5070064;28;19924;-75
2023/12/17 02:40:00;;;;;;;;;;;9.30;99.90;;;;;;5073145;28;19947;-77
2023/12/17 02:42:29;;;;;;;;;;;9.30;99.90;;;;;;5077209;28;19986;-76
2023/12/17 02:44:55;;;;;;;;;;;9.30;99.90;;;;;;5068006;28;19940;-77
2023/12/17 02:47:22;;;;;;;;;;;9.30;99.90;;;;;;5059248;28;20022;-76
2023/12/17 02:49:49;;;;;;;;;;;9.30;99.90;;;;;;5067062;28;19933;-77
2023/12/17 02:52:15;;;;;;;;;;;9.30;99.90;;;;;;5070163;28;19955;-77
2023/12/17 02:54:43;;;;;;;;;;;9.30;99.90;;;;;;5066594;28;20087;-75
2023/12/17 02:57:09;;;;;;;;;;;9.30;99.90;;;;;;5075307;28;19924;-74
2023/12/17 02:59:40;;;;;;;;;;;9.30;99.90;;;;;;5075156;28;19933;-76
2023/12/17 03:02:07;;;;;;;;;;;9.30;99.90;;;;;;5073948;28;19933;-76
2023/12/17 03:04:33;;;;;;;;;;;9.30;99.90;;;;;;5068737;28;19933;-76
2023/12/17 03:07:00;;;;;;;;;;;9.30;99.90;;;;;;5072476;28;19925;-76
2023/12/17 03:09:27;;;;;;;;;;;9.30;99.90;;;;;;5073189;28;19928;-76
2023/12/17 03:11:54;;;;;;;;;;;9.30;99.90;;;;;;5063132;28;19925;-76
2023/12/17 03:14:21;;;;;;;;;;;9.30;99.90;;;;;;5074288;28;20315;-76
2023/12/17 03:16:49;;;;;;;;;;;9.20;99.90;;;;;;5070150;28;20427;-76
2023/12/17 03:19:15;;;;;;;;;;;9.20;99.90;;;;;;5074165;28;19978;-76
2023/12/17 03:21:42;;;;;;;;;;;9.10;99.90;;;;;;5072956;28;19924;-76
2023/12/17 03:24:09;;;;;;;;;;;9.10;99.90;;;;;;5072639;28;19924;-76
2023/12/17 03:26:36;;;;;;;;;;;9.10;99.90;;;;;;5074535;28;19933;-75
2023/12/17 03:29:02;;;;;;;;;;;9.00;99.90;;;;;;5073792;28;20450;-76
2023/12/17 03:31:29;;;;;;;;;;;9.10;99.90;;;;;;5073358;28;20020;-76
2023/12/17 03:33:57;;;;;;;;;;;9.00;99.90;;;;;;5069978;28;19928;-76
2023/12/17 03:36:24;;;;;;;;;;;9.00;99.90;;;;;;5071261;28;20334;-76
2023/12/17 03:38:51;;;;;;;;;;;9.00;99.90;;;;;;5073625;28;19924;-76
2023/12/17 03:41:22;;;;;;;;;;;9.00;99.90;;;;;;5070086;28;19924;-76
2023/12/17 03:43:50;;;;;;;;;;;9.00;99.90;;;;;;5073381;28;20019;-76
2023/12/17 03:46:17;;;;;;;;;;;8.90;99.90;;;;;;5070354;28;19933;-75
2023/12/17 03:48:44;;;;;;;;;;;8.90;99.90;;;;;;5067581;28;19968;-75
2023/12/17 03:51:12;;;;;;;;;;;8.90;99.90;;;;;;5072078;28;19970;-74
2023/12/17 03:53:38;;;;;;;;;;;8.90;99.90;;;;;;5072499;28;19924;-74
2023/12/17 03:56:08;;;;;;;;;;;8.90;99.90;;;;;;5068080;28;19925;-75
2023/12/17 03:58:35;;;;;;;;;;;8.90;99.90;;;;;;5073841;28;19971;-74
2023/12/17 04:01:02;;;;;;;;;;;8.90;99.90;;;;;;5072370;28;19924;-74
2023/12/17 04:03:29;;;;;;;;;;;8.90;99.90;;;;;;5071846;28;20043;-74
2023/12/17 04:05:56;;;;;;;;;;;8.90;99.90;;;;;;5071856;28;20373;-74
2023/12/17 04:08:24;;;;;;;;;;;8.90;99.90;;;;;;5071769;28;19947;-75
2023/12/17 04:10:50;;;;;;;;;;;8.90;99.90;;;;;;5069293;28;19928;-74
2023/12/17 04:13:17;;;;;;;;;;;8.90;99.90;;;;;;5071829;28;20077;-74
2023/12/17 04:15:44;;;;;;;;;;;8.90;99.90;;;;;;5066860;28;19933;-73
2023/12/17 04:18:11;;;;;;;;;;;8.90;99.90;;;;;;5065524;28;20021;-74
2023/12/17 04:20:38;;;;;;;;;;;8.90;99.90;;;;;;5070051;28;19924;-74
2023/12/17 04:23:04;;;;;;;;;;;8.90;99.90;;;;;;5075549;28;19971;-74
2023/12/17 04:25:33;;;;;;;;;;;8.90;99.90;;;;;;5072818;28;19967;-73
2023/12/17 04:27:59;;;;;;;;;;;8.90;99.90;;;;;;5072237;28;19966;-74
2023/12/17 04:30:26;;;;;;;;;;;8.80;99.90;;;;;;5070915;28;19928;-74
2023/12/17 04:32:53;;;;;;;;;;;8.80;99.90;;;;;;5071403;28;19964;-74
2023/12/17 04:35:20;;;;;;;;;;;8.80;99.90;;;;;;5072413;28;19925;-74
2023/12/17 04:37:47;;;;;;;;;;;8.80;99.90;;;;;;5069978;28;19929;-74
2023/12/17 04:40:14;;;;;;;;;;;8.80;99.90;;;;;;5071417;28;19971;-75
2023/12/17 04:42:42;;;;;;;;;;;8.80;99.90;;;;;;5073630;28;19925;-76
2023/12/17 04:45:09;;;;;;;;;;;8.80;99.90;;;;;;5070039;28;19932;-76
2023/12/17 04:47:36;;;;;;;;;;;8.80;99.90;;;;;;5069186;28;19947;-78
2023/12/17 04:50:03;;;;;;;;;;;8.80;99.90;;;;;;5067022;28;20376;-78
2023/12/17 04:52:30;;;;;;;;;;;8.80;99.90;;;;;;5063029;28;19932;-79
2023/12/17 04:54:56;;;;;;;;;;;8.80;99.90;;;;;;5065267;28;20015;-80
2023/12/17 04:57:23;;;;;;;;;;;8.70;99.90;;;;;;5062202;28;20001;-77
2023/12/17 04:59:51;;;;;;;;;;;8.60;99.90;;;;;;5069004;28;19964;-76
2023/12/17 05:02:18;;;;;;;;;;;8.60;99.90;;;;;;5071398;28;19978;-78
2023/12/17 05:04:45;;;;;;;;;;;8.60;99.90;;;;;;5065587;28;19936;-72
2023/12/17 05:07:11;;;;;;;;;;;8.60;99.90;;;;;;5060928;28;19928;-71
2023/12/17 05:09:38;;;;;;;;;;;8.60;99.90;;;;;;5068680;28;19978;-72
2023/12/17 05:12:06;;;;;;;;;;;8.60;99.90;;;;;;5070818;28;19924;-71
2023/12/17 05:14:32;;;;;;;;;;;8.60;99.90;;;;;;5070399;28;19929;-73
2023/12/17 05:17:00;;;;;;;;;;;8.60;99.90;;;;;;5069003;28;19924;-72
2023/12/17 05:19:27;;;;;;;;;;;8.50;99.90;;;;;;5067818;28;19932;-71
2023/12/17 05:21:54;;;;;;;;;;;8.50;99.90;;;;;;5067593;28;20280;-71
2023/12/17 05:24:21;;;;;;;;;;;8.50;99.90;;;;;;5070964;28;20008;-71
2023/12/17 05:26:47;;;;;;;;;;;8.40;99.90;;;;;;5070359;28;19975;-71
2023/12/17 05:29:14;;;;;;;;;;;8.40;99.90;;;;;;5069878;28;19970;-71
2023/12/17 05:31:41;;;;;;;;;;;8.40;99.90;;;;;;5054810;28;19925;-71
2023/12/17 05:34:09;;;;;;;;;;;8.40;99.90;;;;;;5067107;28;20677;-71
2023/12/17 05:36:36;;;;;;;;;;;8.30;99.90;;;;;;5069318;28;19925;-71
2023/12/17 05:39:04;;;;;;;;;;;8.30;99.90;;;;;;5071361;28;20479;-71
2023/12/17 05:41:30;;;;;;;;;;;8.30;99.90;;;;;;5066511;28;19925;-70
2023/12/17 05:43:57;;;;;;;;;;;8.30;99.90;;;;;;5068928;28;19951;-70
2023/12/17 05:46:25;;;;;;;;;;;8.30;99.90;;;;;;5054982;28;19929;-70
2023/12/17 05:48:52;;;;;;;;;;;8.20;99.90;;;;;;5066085;28;20303;-70
2023/12/17 05:51:21;;;;;;;;;;;8.20;99.90;;;;;;5066848;28;19924;-70
2023/12/17 05:53:47;;;;;;;;;;;8.20;99.90;;;;;;5065543;28;19960;-70
2023/12/17 05:56:14;;;;;;;;;;;8.20;99.90;;;;;;5054852;28;20400;-71
2023/12/17 05:58:41;;;;;;;;;;;8.20;99.90;;;;;;5071319;28;19925;-70
2023/12/17 06:01:08;;;;;;;;;;;8.20;99.90;;;;;;5070371;28;19982;-70
2023/12/17 06:03:35;;;;;;;;;;;8.10;99.90;;;;;;5069730;28;19925;-70
2023/12/17 06:06:02;;;;;;;;;;;8.10;99.90;;;;;;5068417;28;19932;-70
2023/12/17 06:08:30;;;;;;;;;;;8.10;99.90;;;;;;5068252;28;20395;-70
2023/12/17 06:10:57;;;;;;;;;;;8.10;99.90;;;;;;5061780;28;19986;-70
2023/12/17 06:13:23;;;;;;;;;;;8.10;99.90;;;;;;5067473;28;19970;-71
2023/12/17 06:15:50;;;;;;;;;;;8.10;99.90;;;;;;5068574;28;19931;-71
2023/12/17 06:18:17;;;;;;;;;;;8.10;99.90;;;;;;5070792;28;19924;-71
2023/12/17 06:20:44;;;;;;;;;;;8.10;99.90;;;;;;5069075;28;19928;-70
2023/12/17 06:23:12;;;;;;;;;;;8.10;99.90;;;;;;5064380;28;19974;-70
2023/12/17 06:25:40;;;;;;;;;;;8.10;99.90;;;;;;5064712;28;19924;-71
2023/12/17 06:28:07;;;;;;;;;;;8.10;99.90;;;;;;5064990;28;20336;-71
2023/12/17 06:30:33;;;;;;;;;;;8.10;99.90;;;;;;5062427;28;20414;-71
2023/12/17 06:33:00;;;;;;;;;;;8.10;99.90;;;;;;5066482;28;20397;-71
2023/12/17 06:35:27;;;;;;;;;;;8.10;99.90;;;;;;5064902;28;19959;-71
2023/12/17 06:37:54;;;;;;;;;;;8.10;99.90;;;;;;5065644;28;19962;-71
2023/12/17 06:40:20;;;;;;;;;;;8.10;99.90;;;;;;5066480;28;19931;-71
2023/12/17 06:42:49;;;;;;;;;;;8.00;99.90;;;;;;5070548;28;19928;-71
2023/12/17 06:45:17;;;;;;;;;;;8.00;99.90;;;;;;5071182;28;19964;-71
2023/12/17 06:47:45;;;;;;;;;;;7.90;99.90;;;;;;5070526;28;19924;-71
2023/12/17 06:50:12;;;;;;;;;;;7.90;99.90;;;;;;5066177;28;19925;-71
2023/12/17 06:52:38;;;;;;;;;;;7.90;99.90;;;;;;5066727;28;20287;-72
2023/12/17 06:55:06;;;;;;;;;;;8.00;99.90;;;;;;5068715;28;19947;-71
2023/12/17 06:57:33;;;;;;;;;;;8.00;99.90;;;;;;5069697;28;19924;-71
2023/12/17 07:00:01;;;;;;;;;;;8.00;99.90;;;;;;5070734;28;19924;-71
2023/12/17 07:02:28;;;;;;;;;;;8.00;99.90;;;;;;5060295;28;19924;-72
2023/12/17 07:04:55;;;;;;;;;;;8.00;99.90;;;;;;5068772;28;19935;-71
2023/12/17 07:07:22;;;;;;;;;;;8.00;99.90;;;;;;5063611;28;19998;-72
2023/12/17 07:09:48;;;;;;;;;;;8.00;99.90;;;;;;5065946;28;20343;-71
2023/12/17 07:12:15;;;;;;;;;;;8.00;99.90;;;;;;5067775;28;19928;-70
2023/12/17 07:14:42;;;;;;;;;;;8.00;99.90;;;;;;5069109;28;19925;-71
2023/12/17 07:17:10;;;;;;;;;;;8.00;99.90;;;;;;5064213;28;19982;-69
2023/12/17 07:19:37;;;;;;;;;;;8.00;99.90;;;;;;5065137;28;19925;-69
2023/12/17 07:22:03;;;;;;;;;;;8.00;99.90;;;;;;5067216;28;19955;-69
2023/12/17 07:24:30;;;;;;;;;;;8.00;99.90;;;;;;5068391;28;19974;-69
2023/12/17 07:26:57;;;;;;;;;;;8.00;99.90;;;;;;5067569;28;19943;-69
2023/12/17 07:29:24;;;;;;;;;;;7.90;99.90;;;;;;5054808;28;20415;-70
2023/12/17 07:31:50;;;;;;;;;;;7.80;99.90;;;;;;5068054;28;19928;-70
2023/12/17 07:34:19;;;;;;;;;;;7.80;99.90;;;;;;5066687;28;19974;-69
2023/12/17 07:36:46;;;;;;;;;;;7.80;99.90;;;;;;5066302;28;19959;-70
2023/12/17 07:39:13;;;;;;;;;;;7.80;99.90;;;;;;5066662;28;20341;-71
2023/12/17 07:41:39;;;;;;;;;;;7.70;99.90;;;;;;5068422;28;19924;-70
2023/12/17 07:44:06;;;;;;;;;;;7.70;99.90;;;;;;5070775;28;19925;-70
2023/12/17 07:46:33;;;;;;;;;;;7.60;99.90;;;;;;5069676;28;20007;-71
2023/12/17 07:49:00;;;;;;;;;;;7.60;99.90;;;;;;5070620;28;19931;-70
2023/12/17 07:51:28;;;;;;;;;;;7.50;99.90;;;;;;5071839;28;19973;-70
2023/12/17 07:53:55;;;;;;;;;;;7.50;99.90;;;;;;5072414;28;19964;-70
2023/12/17 07:56:21;;;;;;;;;;;7.40;99.90;;;;;;5056154;28;19928;-70
2023/12/17 07:58:48;;;;;;;;;;;7.40;99.90;;;;;;5068626;28;19963;-70
2023/12/17 08:01:15;;;;;;;;;;;7.40;99.90;;;;;;5065623;28;20319;-70
2023/12/17 08:03:42;;;;;;;;;;;7.30;99.90;;;;;;5055192;28;19963;-71
2023/12/17 08:06:08;;;;;;;;;;;7.30;99.90;;;;;;5068822;28;19929;-71
2023/12/17 08:08:37;;;;;;;;;;;7.30;99.90;;;;;;5073010;28;19964;-71
2023/12/17 08:11:03;;;;;;;;;;;7.30;99.90;;;;;;5072877;28;19924;-72
2023/12/17 08:13:30;;;;;;;;;;;7.30;99.90;;;;;;5073557;28;19971;-70
2023/12/17 08:15:58;;;;;;;;;;;7.30;99.90;;;;;;5071017;28;19937;-71
2023/12/17 08:18:25;;;;;;;;;;;7.30;99.90;;;;;;5069609;28;20047;-70
2023/12/17 08:20:51;;;;;;;;;;;7.30;99.90;;;;;;5068058;28;20410;-71
2023/12/17 08:23:18;;;;;;;;;;;7.20;99.90;;;;;;5073554;28;19981;-71
2023/12/17 08:25:46;;;;;;;;;;;7.20;99.90;;;;;;5067542;28;20833;-71
2023/12/17 08:28:13;;;;;;;;;;;7.30;99.90;;;;;;5072729;28;20383;-72
2023/12/17 08:30:40;;;;;;;;;;;7.20;99.90;;;;;;5062468;28;19964;-72
2023/12/17 08:33:07;;;;;;;;;;;7.20;99.90;;;;;;5067753;28;19925;-72
2023/12/17 08:35:36;;;;;;;;;;;7.10;99.90;;;;;;5073096;28;19967;-72
2023/12/17 08:38:05;;;;;;;;;;;7.00;99.90;;;;;;5073351;28;20391;-72
2023/12/17 08:40:33;;;;;;;;;;;7.10;99.90;;;;;;5091539;28;20465;-72
2023/12/17 08:43:01;;;;;;;;;;;7.10;99.90;;;;;;5068550;28;19928;-71
2023/12/17 08:45:27;;;;;;;;;;;7.10;99.90;;;;;;5069179;28;19956;-72
2023/12/17 08:47:54;;;;;;;;;;;7.20;99.90;;;;;;5074802;28;19986;-72
2023/12/17 08:50:21;;;;;;;;;;;7.60;99.90;;;;;;5071136;28;19925;-70
2023/12/17 08:52:48;;;;;;;;;;;7.80;99.90;;;;;;5072342;28;19986;-71
2023/12/17 08:55:15;;;;;;;;;;;8.00;99.90;;;;;;5070222;28;19924;-71
2023/12/17 08:57:41;;;;;;;;;;;8.60;99.90;;;;;;5069762;28;20412;-71
2023/12/17 09:00:12;;;;;;;;;;;8.80;99.90;;;;;;5068260;28;19975;-71
2023/12/17 09:02:39;;;;;;;;;;;8.70;99.90;;;;;;5066887;28;20074;-72
2023/12/17 09:05:09;;;;;;;;;;;8.80;99.90;;;;;;5073529;28;20304;-73
2023/12/17 09:07:39;;;;;;;;;;;8.90;99.90;;;;;;5069613;28;20037;-73
2023/12/17 09:10:06;;;;;;;;;;;9.40;99.90;;;;;;5071703;28;19924;-73
2023/12/17 09:12:33;;;;;;;;;;;9.70;99.90;;;;;;5072580;28;20444;-73
2023/12/17 09:15:00;;;;;;;;;;;9.90;99.90;;;;;;5068651;28;19985;-74
2023/12/17 09:17:28;;;;;;;;;;;9.50;99.90;;;;;;5071765;28;19954;-73
2023/12/17 09:19:55;;;;;;;;;;;9.40;99.90;;;;;;5061787;28;19932;-72
2023/12/17 09:22:22;;;;;;;;;;;9.70;99.90;;;;;;5065952;28;19931;-72
2023/12/17 09:24:49;;;;;;;;;;;9.70;99.90;;;;;;5068813;28;19986;-72
2023/12/17 09:27:15;;;;;;;;;;;8.70;99.90;;;;;;5072567;28;19925;-73
2023/12/17 09:29:42;;;;;;;;;;;8.00;99.90;;;;;;5071348;28;19925;-72
2023/12/17 09:32:09;;;;;;;;;;;7.60;99.90;;;;;;5070162;28;19924;-73
2023/12/17 09:34:37;;;;;;;;;;;7.40;99.90;;;;;;5069566;28;19932;-72
2023/12/17 09:37:04;;;;;;;;;;;7.20;99.90;;;;;;5062424;28;19924;-71
2023/12/17 09:39:31;;;;;;;;;;;7.20;99.90;;;;;;5070121;28;19946;-72
2023/12/17 09:41:58;;;;;;;;;;;7.10;99.90;;;;;;5067361;28;19925;-73
2023/12/17 09:44:26;;;;;;;;;;;7.10;99.90;;;;;;5069816;28;20023;-72
2023/12/17 09:46:52;;;;;;;;;;;7.20;99.90;;;;;;5066925;28;19973;-72
2023/12/17 09:49:19;;;;;;;;;;;7.20;99.90;;;;;;5066502;28;19924;-73
2023/12/17 09:51:48;;;;;;;;;;;7.30;99.90;;;;;;5067757;28;19932;-73
2023/12/17 09:54:15;;;;;;;;;;;7.20;99.90;;;;;;5069622;28;19932;-72
2023/12/17 09:56:47;;;;;;;;;;;7.20;99.90;;;;;;5069721;28;19925;-72
2023/12/17 09:59:13;;;;;;;;;;;7.20;99.90;;;;;;5067827;28;19928;-72
2023/12/17 10:01:40;;;;;;;;;;;7.20;99.90;;;;;;5068763;28;19975;-72
2023/12/17 10:04:07;;;;;;;;;;;7.30;99.90;;;;;;5070734;28;20221;-72
2023/12/17 10:06:34;;;;;;;;;;;7.30;99.90;;;;;;5067751;28;20095;-72
2023/12/17 10:09:02;;;;;;;;;;;7.30;99.90;;;;;;5070071;28;20303;-73
2023/12/17 10:11:28;;;;;;;;;;;7.30;99.90;;;;;;5064065;28;19928;-73
2023/12/17 10:13:56;;;;;;;;;;;7.40;99.90;;;;;;5069906;28;19932;-72
2023/12/17 10:16:23;;;;;;;;;;;7.50;99.90;;;;;;5068886;28;20933;-72
2023/12/17 10:18:49;;;;;;;;;;;7.50;99.90;;;;;;5066221;28;19959;-73
2023/12/17 10:21:17;;;;;;;;;;;7.60;99.90;;;;;;5064751;28;19947;-72
2023/12/17 10:23:49;;;;;;;;;;;7.70;99.90;;;;;;5066318;28;19931;-72
2023/12/17 10:26:18;;;;;;;;;;;7.60;99.90;;;;;;5069478;28;20387;-72
2023/12/17 10:28:46;;;;;;;;;;;7.70;99.90;;;;;;5067327;28;19924;-72
2023/12/17 10:31:15;;;;;;;;;;;7.70;99.90;;;;;;5066887;28;19948;-73
2023/12/17 10:33:53;;;;;;;;;;;7.70;99.90;;;;;;5068266;28;19929;-72
2023/12/17 10:36:20;;;;;;;;;;;7.70;99.90;;;;;;5067559;28;20337;-72
2023/12/17 10:38:48;;;;;;;;;;;7.80;99.90;;;;;;5070275;28;20134;-72
2023/12/17 10:41:16;;;;;;;;;;;7.90;99.90;;;;;;5066670;28;19925;-72
2023/12/17 10:43:44;;;;;;;;;;;7.90;99.90;;;;;;5070848;28;19931;-72
2023/12/17 10:46:13;;;;;;;;;;;7.90;99.90;;;;;;5066756;28;19924;-72
2023/12/17 10:48:41;;;;;;;;;;;7.90;99.90;;;;;;5064291;28;19982;-73
2023/12/17 10:51:09;;;;;;;;;;;8.00;99.90;;;;;;5067411;28;20395;-72
2023/12/17 10:53:36;;;;;;;;;;;8.00;99.90;;;;;;5071019;28;19924;-72
2023/12/17 10:56:03;;;;;;;;;;;8.10;99.90;;;;;;5065792;28;19948;-70
2023/12/17 10:58:30;;;;;;;;;;;8.10;99.90;;;;;;5068689;28;19928;-71
2023/12/17 11:00:59;;;;;;;;;;;8.20;99.90;;;;;;5070921;28;20334;-71
2023/12/17 11:03:26;;;;;;;;;;;8.30;99.90;;;;;;5068317;28;20311;-72
2023/12/17 11:05:57;;;;;;;;;;;8.40;99.90;;;;;;5057159;28;20445;-72
2023/12/17 11:08:25;;;;;;;;;;;8.40;99.90;;;;;;5065526;28;19931;-70
2023/12/17 11:10:52;;;;;;;;;;;8.40;99.90;;;;;;5070237;28;19924;-71
2023/12/17 11:13:21;;;;;;;;;;;8.50;99.90;;;;;;5061683;28;19975;-72
2023/12/17 11:15:48;;;;;;;;;;;8.50;99.90;;;;;;5071113;28;19928;-71
2023/12/17 11:18:16;;;;;;;;;;;8.50;99.90;;;;;;5073280;28;19925;-72
2023/12/17 11:20:44;;;;;;;;;;;8.50;99.90;;;;;;5072542;28;19995;-71
2023/12/17 11:23:10;;;;;;;;;;;8.50;99.90;;;;;;5073913;28;19925;-73
2023/12/17 11:25:37;;;;;;;;;;;8.50;99.90;;;;;;5071537;28;19960;-72
2023/12/17 11:28:04;;;;;;;;;;;8.60;99.90;;;;;;5073209;28;20353;-71
2023/12/17 11:30:32;;;;;;;;;;;8.50;99.90;;;;;;5074542;28;19924;-70
2023/12/17 11:32:59;;;;;;;;;;;8.60;99.90;;;;;;5074679;28;19928;-72
2023/12/17 11:35:28;;;;;;;;;;;8.70;99.90;;;;;;5073582;28;20015;-72
2023/12/17 11:37:54;;;;;;;;;;;8.70;99.90;;;;;;5070418;28;19924;-74
2023/12/17 11:40:22;;;;;;;;;;;8.80;99.90;;;;;;5072513;28;19924;-72
2023/12/17 11:42:58;;;;;;;;;;;8.80;99.90;;;;;;5072285;28;20315;-74
2023/12/17 11:45:33;;;;;;;;;;;8.80;99.90;;;;;;5072450;28;19970;-73
2023/12/17 11:48:09;;;;;;;;;;;8.80;99.90;;;;;;5073298;28;19924;-72
2023/12/17 11:50:42;;;;;;;;;;;8.90;99.90;;;;;;5071393;28;20000;-73
2023/12/17 11:53:09;;;;;;;;;;;8.90;99.90;;;;;;5072587;28;19998;-72
2023/12/17 11:55:42;;;;;;;;;;;9.00;99.90;;;;;;5072878;28;19928;-72
2023/12/17 11:58:09;;;;;;;;;;;8.90;99.90;;;;;;5054447;28;19983;-73
2023/12/17 12:00:36;;;;;;;;;;;9.00;99.90;;;;;;5066837;28;19984;-72
2023/12/17 12:03:03;;;;;;;;;;;9.00;99.90;;;;;;5070846;28;19924;-71
2023/12/17 12:05:29;;;;;;;;;;;9.10;99.90;;;;;;5071885;28;19924;-72
2023/12/17 12:08:00;;;;;;;;;;;9.00;99.90;;;;;;5069967;28;19925;-73
2023/12/17 12:10:27;;;;;;;;;;;9.10;99.90;;;;;;5070412;28;19978;-71
2023/12/17 12:13:00;;;;;;;;;;;9.10;99.90;;;;;;5065468;28;20013;-72
2023/12/17 12:15:27;;;;;;;;;;;9.20;99.90;;;;;;5056368;28;19925;-73
2023/12/17 12:17:54;;;;;;;;;;;9.20;99.90;;;;;;5060052;28;19933;-72
2023/12/17 12:20:33;;;;;;;;;;;9.20;99.90;;;;;;5072439;28;20303;-72
2023/12/17 12:23:01;;;;;;;;;;;9.20;99.90;;;;;;5070310;28;20007;-72
2023/12/17 12:25:28;;;;;;;;;;;9.20;99.90;;;;;;5074456;28;19924;-72
2023/12/17 12:27:55;;;;;;;;;;;9.20;99.90;;;;;;5072927;28;19934;-72
2023/12/17 12:30:25;;;;;;;;;;;9.20;99.90;;;;;;5073643;28;19967;-72
2023/12/17 12:32:52;;;;;;;;;;;9.30;99.90;;;;;;5073555;28;20003;-72
2023/12/17 12:35:23;;;;;;;;;;;9.30;99.90;;;;;;5073292;28;19925;-72
2023/12/17 12:37:50;;;;;;;;;;;9.60;99.90;;;;;;5073360;28;20379;-71
2023/12/17 12:40:18;;;;;;;;;;;9.50;99.90;;;;;;5072829;28;19928;-71
2023/12/17 12:42:44;;;;;;;;;;;9.50;99.90;;;;;;5073096;28;20002;-72
2023/12/17 12:45:11;;;;;;;;;;;9.40;99.90;;;;;;5073159;28;20371;-72
2023/12/17 12:47:38;;;;;;;;;;;9.50;99.90;;;;;;5073280;28;19964;-72
2023/12/17 12:50:05;;;;;;;;;;;9.40;99.90;;;;;;5072336;28;19924;-72
2023/12/17 12:52:32;;;;;;;;;;;9.30;99.90;;;;;;5069261;28;20007;-72
2023/12/17 12:54:59;;;;;;;;;;;9.30;99.90;;;;;;5070475;28;19978;-72
2023/12/17 12:57:27;;;;;;;;;;;9.30;99.90;;;;;;5071715;28;19924;-72
2023/12/17 12:59:54;;;;;;;;;;;9.40;99.90;;;;;;5073047;28;19925;-72
2023/12/17 13:02:21;;;;;;;;;;;9.40;99.90;;;;;;5072342;28;20338;-72
2023/12/17 13:04:49;;;;;;;;;;;9.30;99.90;;;;;;5070659;28;19929;-71
2023/12/17 13:07:15;;;;;;;;;;;9.30;99.90;;;;;;5072809;28;19924;-72
2023/12/17 13:09:42;;;;;;;;;;;9.20;99.90;;;;;;5058869;28;19925;-72
2023/12/17 13:12:09;;;;;;;;;;;9.20;99.90;;;;;;5064529;28;19924;-72
2023/12/17 13:14:37;;;;;;;;;;;9.20;99.90;;;;;;5068460;28;20452;-72
2023/12/17 13:17:04;;;;;;;;;;;9.30;99.90;;;;;;5072297;28;19993;-72
2023/12/17 13:19:31;;;;;;;;;;;9.20;99.90;;;;;;5070741;28;19960;-71
2023/12/17 13:21:58;;;;;;;;;;;9.30;99.90;;;;;;5072332;28;20038;-73
2023/12/17 13:24:25;;;;;;;;;;;9.30;99.90;;;;;;5071239;28;19986;-70
2023/12/17 13:26:51;;;;;;;;;;;9.30;99.90;;;;;;5072581;28;19971;-71
2023/12/17 13:29:18;;;;;;;;;;;9.30;99.90;;;;;;5067449;28;19967;-71
2023/12/17 13:31:46;;;;;;;;;;;9.30;99.90;;;;;;5071378;28;19979;-70
2023/12/17 13:34:17;;;;;;;;;;;9.30;99.90;;;;;;5068936;28;20002;-70
2023/12/17 13:36:43;;;;;;;;;;;9.30;99.90;;;;;;5068545;28;20402;-71
2023/12/17 13:39:10;;;;;;;;;;;9.30;99.90;;;;;;5067538;28;19972;-71
2023/12/17 13:41:38;;;;;;;;;;;9.20;99.90;;;;;;5071177;28;20073;-70
2023/12/17 13:44:04;;;;;;;;;;;9.20;99.90;;;;;;5071167;28;19925;-70
2023/12/17 13:46:31;;;;;;;;;;;9.20;99.90;;;;;;5071133;28;19968;-71
2023/12/17 13:48:59;;;;;;;;;;;9.20;99.90;;;;;;5066414;28;19978;-71
2023/12/17 13:51:26;;;;;;;;;;;9.20;99.90;;;;;;5058516;28;19980;-71
2023/12/17 13:53:53;;;;;;;;;;;9.20;99.90;;;;;;5067995;28;20492;-71
2023/12/17 13:56:19;;;;;;;;;;;9.20;99.90;;;;;;5071348;28;19974;-72
2023/12/17 13:58:46;;;;;;;;;;;9.20;99.90;;;;;;5070329;28;20225;-72
2023/12/17 14:01:13;;;;;;;;;;;9.20;99.90;;;;;;5071038;28;19966;-72
2023/12/17 14:03:40;;;;;;;;;;;9.10;99.90;;;;;;5067139;28;19925;-71
2023/12/17 14:06:14;;;;;;;;;;;9.10;99.90;;;;;;5066328;28;19924;-71
2023/12/17 14:08:42;;;;;;;;;;;9.10;99.90;;;;;;5068321;28;20431;-72
2023/12/17 14:11:09;;;;;;;;;;;9.10;99.90;;;;;;5068450;28;19928;-72
2023/12/17 14:13:37;;;;;;;;;;;9.10;99.90;;;;;;5071409;28;19924;-73
2023/12/17 14:16:04;;;;;;;;;;;9.10;99.90;;;;;;5070577;28;19972;-72
2023/12/17 14:18:31;;;;;;;;;;;9.10;99.90;;;;;;5069905;28;20342;-72
2023/12/17 14:20:58;;;;;;;;;;;9.00;99.90;;;;;;5069155;28;19928;-72
2023/12/17 14:23:26;;;;;;;;;;;9.00;99.90;;;;;;5069008;28;19924;-72
2023/12/17 14:25:53;;;;;;;;;;;9.00;99.90;;;;;;5070439;28;19924;-72
2023/12/17 14:28:20;;;;;;;;;;;9.00;99.90;;;;;;5070336;28;20391;-72
2023/12/17 14:30:47;;;;;;;;;;;8.90;99.90;;;;;;5069206;28;19924;-73